createdAt,value
2023-03-13T00:01:13.169Z,16.98
2023-03-13T00:03:40.059Z,17.42
2023-03-13T00:06:07.069Z,17.02
2023-03-13T00:08:33.921Z,17.58
2023-03-13T00:11:05.722Z,16.55
2023-03-13T00:13:33.002Z,17.27
2023-03-13T00:16:05.045Z,16.52
2023-03-13T00:21:00.273Z,15.93
2023-03-13T00:23:28.049Z,15.70
2023-03-13T00:26:07.663Z,16.95
2023-03-13T00:28:36.308Z,16.58
2023-03-13T00:31:20.471Z,17.08
2023-03-13T00:33:49.588Z,16.70
2023-03-13T00:36:25.110Z,16.05
2023-03-13T00:38:54.482Z,16.70
2023-03-13T00:41:26.863Z,16.40
2023-03-13T00:43:54.348Z,15.40
2023-03-13T00:46:23.798Z,16.63
2023-03-13T00:48:50.862Z,15.35
2023-03-13T00:51:19.083Z,16.38
2023-03-13T00:53:46.575Z,16.10
2023-03-13T00:56:15.806Z,15.90
2023-03-13T00:58:45.716Z,14.77
2023-03-13T01:01:13.868Z,16.77
2023-03-13T01:03:42.666Z,14.88
2023-03-13T01:06:12.548Z,14.25
2023-03-13T01:08:39.689Z,15.27
2023-03-13T01:11:16.803Z,14.40
2023-03-13T01:13:44.072Z,15.75
2023-03-13T01:16:13.776Z,13.98
2023-03-13T01:18:44.356Z,14.77
2023-03-13T01:21:12.321Z,14.40
2023-03-13T01:23:39.185Z,14.50
2023-03-13T01:26:07.346Z,14.95
2023-03-13T01:28:35.504Z,13.93
2023-03-13T01:31:18.822Z,14.60
2023-03-13T01:33:46.981Z,13.73
2023-03-13T01:36:14.392Z,13.20
2023-03-13T01:38:41.330Z,13.98
2023-03-13T01:41:11.027Z,13.38
2023-03-13T01:43:38.308Z,13.75
2023-03-13T01:46:10.916Z,12.88
2023-03-13T01:48:43.945Z,12.38
2023-03-13T01:51:33.009Z,11.98
2023-03-13T01:54:23.399Z,12.25
2023-03-13T01:57:08.946Z,11.80
2023-03-13T01:59:44.244Z,12.30
2023-03-13T02:02:11.635Z,12.13
2023-03-13T02:04:47.188Z,11.25
2023-03-13T02:07:18.835Z,11.00
2023-03-13T02:09:51.402Z,11.13
2023-03-13T02:12:30.981Z,10.52
2023-03-13T02:14:59.695Z,11.05
2023-03-13T02:17:26.930Z,10.25
2023-03-13T02:19:53.770Z,11.95
2023-03-13T02:22:59.717Z,12.25
2023-03-13T02:25:47.758Z,11.10
2023-03-13T02:28:17.475Z,11.45
2023-03-13T02:30:45.417Z,10.57
2023-03-13T02:33:14.374Z,11.02
2023-03-13T02:35:43.661Z,12.20
2023-03-13T02:38:12.953Z,10.93
2023-03-13T02:40:45.351Z,10.43
2023-03-13T02:43:35.653Z,10.77
2023-03-13T02:46:07.406Z,11.02
2023-03-13T02:48:40.064Z,10.98
2023-03-13T02:51:34.012Z,10.07
2023-03-13T02:54:04.136Z,10.25
2023-03-13T02:56:33.607Z,9.80
2023-03-13T02:59:00.564Z,10.93
2023-03-13T03:01:27.388Z,11.13
2023-03-13T03:03:54.427Z,10.85
2023-03-13T03:06:21.221Z,10.80
2023-03-13T03:08:47.977Z,10.88
2023-03-13T03:11:14.764Z,10.90
2023-03-13T03:13:41.576Z,11.30
2023-03-13T03:16:15.265Z,11.52
2023-03-13T03:18:42.272Z,10.70
2023-03-13T03:21:08.982Z,10.85
2023-03-13T03:23:37.009Z,12.50
2023-03-13T03:26:05.547Z,10.57
2023-03-13T03:28:32.591Z,12.20
2023-03-13T03:31:05.284Z,10.15
2023-03-13T03:33:32.061Z,10.68
2023-03-13T03:36:03.881Z,12.93
2023-03-13T03:38:31.103Z,11.27
2023-03-13T03:40:57.882Z,11.55
2023-03-13T03:43:24.879Z,12.15
2023-03-13T03:45:51.770Z,12.13
2023-03-13T03:48:18.523Z,11.05
2023-03-13T03:50:45.317Z,11.30
2023-03-13T03:53:12.144Z,12.50
2023-03-13T03:55:39.208Z,12.00
2023-03-13T03:58:06.000Z,12.10
2023-03-13T04:00:32.738Z,11.75
2023-03-13T04:02:59.681Z,11.50
2023-03-13T04:05:26.529Z,12.63
2023-03-13T04:07:53.276Z,12.05
2023-03-13T04:10:20.092Z,12.73
2023-03-13T04:12:47.067Z,12.80
2023-03-13T04:15:13.982Z,12.73
2023-03-13T04:17:40.685Z,11.25
2023-03-13T04:20:08.316Z,11.82
2023-03-13T04:22:35.033Z,12.73
2023-03-13T04:25:01.805Z,12.55
2023-03-13T04:27:28.493Z,12.23
2023-03-13T04:29:55.323Z,11.70
2023-03-13T04:32:22.159Z,12.57
2023-03-13T04:34:49.053Z,12.27
2023-03-13T04:37:15.799Z,11.57
2023-03-13T04:39:42.550Z,12.35
2023-03-13T04:42:11.211Z,11.52
2023-03-13T04:44:38.098Z,9.85
2023-03-13T04:47:05.472Z,9.68
2023-03-13T04:49:32.330Z,9.65
2023-03-13T04:51:59.066Z,10.52
2023-03-13T04:54:25.862Z,9.07
2023-03-13T04:56:52.650Z,9.40
2023-03-13T04:59:19.424Z,9.05
2023-03-13T05:01:46.166Z,7.95
2023-03-13T05:04:13.522Z,8.75
2023-03-13T05:06:40.270Z,8.38
2023-03-13T05:09:07.080Z,7.88
2023-03-13T05:11:34.041Z,7.28
2023-03-13T05:14:00.902Z,7.70
2023-03-13T05:16:27.864Z,8.07
2023-03-13T05:18:54.885Z,7.95
2023-03-13T05:21:21.700Z,6.60
2023-03-13T05:23:48.441Z,7.03
2023-03-13T05:26:15.156Z,5.97
2023-03-13T05:28:41.911Z,6.13
2023-03-13T05:31:08.784Z,7.65
2023-03-13T05:33:35.680Z,5.63
2023-03-13T05:36:02.478Z,5.53
2023-03-13T05:38:29.326Z,4.85
2023-03-13T05:40:56.116Z,5.97
2023-03-13T05:43:23.132Z,5.50
2023-03-13T05:45:49.857Z,5.35
2023-03-13T05:48:16.588Z,6.80
2023-03-13T05:50:43.746Z,5.72
2023-03-13T05:53:10.543Z,6.35
2023-03-13T05:55:37.338Z,5.93
2023-03-13T05:58:04.501Z,4.75
2023-03-13T06:00:31.392Z,6.13
2023-03-13T06:02:58.089Z,7.15
2023-03-13T06:05:24.873Z,5.50
2023-03-13T06:07:51.577Z,5.00
2023-03-13T06:10:18.628Z,6.40
2023-03-13T06:12:51.781Z,6.38
2023-03-13T06:15:18.594Z,4.93
2023-03-13T06:17:45.298Z,5.45
2023-03-13T06:20:12.898Z,4.93
2023-03-13T06:22:40.326Z,5.25
2023-03-13T06:25:07.657Z,5.93
2023-03-13T06:27:35.511Z,5.18
2023-03-13T06:30:02.975Z,4.75
2023-03-13T06:32:29.846Z,6.10
2023-03-13T06:34:56.934Z,5.07
2023-03-13T06:37:23.975Z,5.47
2023-03-13T06:39:50.756Z,5.03
2023-03-13T06:42:17.489Z,5.13
2023-03-13T06:44:44.789Z,5.57
2023-03-13T06:47:14.282Z,5.35
2023-03-13T06:49:41.756Z,4.97
2023-03-13T06:52:08.750Z,5.00
2023-03-13T06:54:35.552Z,4.47
2023-03-13T06:57:02.353Z,3.92
2023-03-13T06:59:29.330Z,5.07
2023-03-13T07:01:56.193Z,4.85
2023-03-13T07:04:23.123Z,4.25
2023-03-13T07:06:51.360Z,4.35
2023-03-13T07:09:20.081Z,4.80
2023-03-13T07:11:47.616Z,4.57
2023-03-13T07:14:17.344Z,4.03
2023-03-13T07:16:45.529Z,4.20
2023-03-13T07:19:12.820Z,4.55
2023-03-13T07:21:39.685Z,4.68
2023-03-13T07:24:06.951Z,4.50
2023-03-13T07:26:33.797Z,4.32
2023-03-13T07:29:00.705Z,3.60
2023-03-13T07:31:30.091Z,4.38
2023-03-13T07:33:56.970Z,4.07
2023-03-13T07:36:24.009Z,4.07
2023-03-13T07:38:52.304Z,3.60
2023-03-13T07:41:20.478Z,3.17
2023-03-13T07:43:47.519Z,3.78
2023-03-13T07:46:18.742Z,3.50
2023-03-13T07:48:46.388Z,3.08
2023-03-13T07:51:20.532Z,3.40
2023-03-13T07:53:50.683Z,3.33
2023-03-13T07:56:20.153Z,3.00
2023-03-13T07:58:47.376Z,3.08
2023-03-13T08:01:29.128Z,2.75
2023-03-13T08:03:58.557Z,2.90
2023-03-13T08:06:26.690Z,2.35
2023-03-13T08:08:56.629Z,3.05
2023-03-13T08:11:25.250Z,2.30
2023-03-13T08:13:53.642Z,1.92
2023-03-13T08:16:22.305Z,2.35
2023-03-13T08:18:51.456Z,2.20
2023-03-13T08:21:29.652Z,2.10
2023-03-13T08:26:28.863Z,1.85
2023-03-13T08:28:58.524Z,1.80
2023-03-13T08:31:30.899Z,1.60
2023-03-13T08:33:58.500Z,2.15
2023-03-13T08:36:28.017Z,1.85
2023-03-13T08:38:59.138Z,2.40
2023-03-13T08:41:29.218Z,1.85
2023-03-13T08:43:57.120Z,1.83
2023-03-13T08:46:24.969Z,2.05
2023-03-13T08:48:54.329Z,2.00
2023-03-13T08:51:23.529Z,1.48
2023-03-13T08:53:51.289Z,1.95
2023-03-13T08:56:20.624Z,2.15
2023-03-13T08:58:52.178Z,1.90
2023-03-13T09:01:20.172Z,2.30
2023-03-13T09:03:47.249Z,1.95
2023-03-13T09:06:14.511Z,2.13
2023-03-13T09:08:42.167Z,2.47
2023-03-13T09:11:11.515Z,2.55
2023-03-13T09:13:41.374Z,2.55
2023-03-13T09:16:13.269Z,2.10
2023-03-13T09:18:40.989Z,2.53
2023-03-13T09:21:10.162Z,2.90
2023-03-13T09:23:37.141Z,2.25
2023-03-13T09:26:04.725Z,2.67
2023-03-13T09:28:31.747Z,2.13
2023-03-13T09:31:08.109Z,2.15
2023-03-13T09:33:35.076Z,2.22
2023-03-13T09:36:01.885Z,1.95
2023-03-13T09:38:28.847Z,2.00
2023-03-13T09:41:05.768Z,2.05
2023-03-13T09:43:40.460Z,2.15
2023-03-13T09:46:18.494Z,2.50
2023-03-13T09:48:56.270Z,1.95
2023-03-13T09:51:29.770Z,2.20
2023-03-13T09:54:18.576Z,2.00
2023-03-13T09:56:52.571Z,2.08
2023-03-13T09:59:46.297Z,2.05
2023-03-13T10:02:30.158Z,2.22
2023-03-13T10:05:22.961Z,2.35
2023-03-13T10:07:51.249Z,2.10
2023-03-13T10:10:26.367Z,2.25
2023-03-13T10:13:01.321Z,2.00
2023-03-13T10:15:32.709Z,2.88
2023-03-13T10:18:05.569Z,2.40
2023-03-13T10:20:36.330Z,2.50
2023-03-13T10:23:19.157Z,2.17
2023-03-13T10:25:46.053Z,2.20
2023-03-13T10:28:20.247Z,2.20
2023-03-13T10:30:52.212Z,2.38
2023-03-13T10:33:23.747Z,2.22
2023-03-13T10:36:23.731Z,2.08
2023-03-13T10:38:53.064Z,2.75
2023-03-13T10:41:30.414Z,2.42
2023-03-13T10:44:04.759Z,2.63
2023-03-13T10:46:34.611Z,2.72
2023-03-13T10:49:04.772Z,3.00
2023-03-13T10:51:40.148Z,3.08
2023-03-13T10:54:23.257Z,3.08
2023-03-13T10:56:51.492Z,3.30
2023-03-13T10:59:26.701Z,4.03
2023-03-13T11:02:00.494Z,3.65
2023-03-13T11:04:32.454Z,4.53
2023-03-13T11:07:06.220Z,4.97
2023-03-13T11:09:33.383Z,4.63
2023-03-13T11:12:14.186Z,4.82
2023-03-13T11:14:42.726Z,4.40
2023-03-13T11:17:27.140Z,5.18
2023-03-13T11:20:23.540Z,4.72
2023-03-13T11:23:15.118Z,4.93
2023-03-13T11:26:10.530Z,4.40
2023-03-13T11:28:37.290Z,4.57
2023-03-13T11:31:11.378Z,4.70
2023-03-13T11:33:53.494Z,4.40
2023-03-13T11:36:36.410Z,4.78
2023-03-13T11:39:21.903Z,4.22
2023-03-13T11:41:55.004Z,4.15
2023-03-13T11:44:36.491Z,4.18
2023-03-13T11:47:28.475Z,3.90
2023-03-13T11:50:14.151Z,3.95
2023-03-13T11:53:02.507Z,4.18
2023-03-13T11:56:10.768Z,3.63
2023-03-13T11:58:46.711Z,3.53
2023-03-13T12:01:18.835Z,3.40
2023-03-13T12:04:20.506Z,3.80
2023-03-13T12:06:55.004Z,3.08
2023-03-13T12:09:29.467Z,2.85
2023-03-13T12:12:03.441Z,2.95
2023-03-13T12:14:50.726Z,2.75
2023-03-13T12:17:27.589Z,2.70
2023-03-13T12:20:17.365Z,2.22
2023-03-13T12:23:11.453Z,1.90
2023-03-13T12:25:51.092Z,2.35
2023-03-13T12:28:26.088Z,1.92
2023-03-13T12:31:00.356Z,2.10
2023-03-13T12:33:37.944Z,2.55
2023-03-13T12:36:12.617Z,1.95
2023-03-13T12:38:46.465Z,1.90
2023-03-13T12:41:19.572Z,1.40
2023-03-13T12:44:08.426Z,1.77
2023-03-13T12:47:17.827Z,1.70
2023-03-13T12:50:01.272Z,1.85
2023-03-13T12:52:56.004Z,1.30
2023-03-13T12:55:52.935Z,1.63
2023-03-13T12:58:41.027Z,1.70
2023-03-13T13:01:14.440Z,1.33
2023-03-13T13:03:51.334Z,1.45
2023-03-13T13:06:18.846Z,1.67
2023-03-13T13:08:54.830Z,1.48
2023-03-13T13:11:34.085Z,1.35
2023-03-13T13:14:02.002Z,1.60
2023-03-13T13:16:29.812Z,1.35
2023-03-13T13:19:24.411Z,1.25
2023-03-13T13:22:28.811Z,1.17
2023-03-13T13:25:00.659Z,1.35
2023-03-13T13:27:48.471Z,1.60
2023-03-13T13:30:18.762Z,1.92
2023-03-13T13:32:47.930Z,1.10
2023-03-13T13:35:35.126Z,1.65
2023-03-13T13:38:20.652Z,1.73
2023-03-13T13:41:09.767Z,1.42
2023-03-13T13:43:39.030Z,1.27
2023-03-13T13:46:18.921Z,1.40
2023-03-13T13:48:45.888Z,1.52
2023-03-13T13:51:14.153Z,1.52
2023-03-13T13:53:50.627Z,1.60
2023-03-13T13:56:29.902Z,1.55
2023-03-13T13:59:12.501Z,1.20
2023-03-13T14:01:41.450Z,1.45
2023-03-13T14:04:17.278Z,1.52
2023-03-13T14:06:50.054Z,1.35
2023-03-13T14:09:39.126Z,1.70
2023-03-13T14:12:27.810Z,1.20
2023-03-13T14:15:06.934Z,1.48
2023-03-13T14:17:49.034Z,1.20
2023-03-13T14:20:37.208Z,1.05
2023-03-13T14:23:11.861Z,1.77
2023-03-13T14:25:49.645Z,1.20
2023-03-13T14:28:27.977Z,1.10
2023-03-13T14:30:57.654Z,1.40
2023-03-13T14:33:29.293Z,0.77
2023-03-13T14:35:57.709Z,1.20
2023-03-13T14:38:27.259Z,1.13
2023-03-13T14:40:58.345Z,1.10
2023-03-13T14:45:55.443Z,1.30
2023-03-13T14:48:33.347Z,0.98
2023-03-13T14:51:25.431Z,0.82
2023-03-13T14:54:02.910Z,0.77
2023-03-13T14:56:36.200Z,0.68
2023-03-13T14:59:17.183Z,1.25
2023-03-13T15:01:44.248Z,0.60
2023-03-13T15:04:11.181Z,0.80
2023-03-13T15:06:38.167Z,0.85
2023-03-13T15:09:10.866Z,0.80
2023-03-13T15:12:00.074Z,0.63
2023-03-13T15:14:47.904Z,0.80
2023-03-13T15:17:27.568Z,0.82
2023-03-13T15:19:56.773Z,0.77
2023-03-13T15:22:38.070Z,0.77
2023-03-13T15:25:14.681Z,1.05
2023-03-13T15:27:41.537Z,0.80
2023-03-13T15:30:09.083Z,1.05
2023-03-13T15:32:39.046Z,0.77
2023-03-13T15:35:28.924Z,0.80
2023-03-13T15:37:57.416Z,0.80
2023-03-13T15:40:24.593Z,0.70
2023-03-13T15:42:52.902Z,1.02
2023-03-13T15:45:20.607Z,0.60
2023-03-13T15:47:48.845Z,0.70
2023-03-13T15:50:18.713Z,0.77
2023-03-13T15:52:45.547Z,0.63
2023-03-13T15:55:12.993Z,0.70
2023-03-13T15:57:47.094Z,0.70
2023-03-13T16:00:25.328Z,0.80
2023-03-13T16:02:52.214Z,0.60
2023-03-13T16:05:19.278Z,1.17
2023-03-13T16:07:46.231Z,0.98
2023-03-13T16:10:23.796Z,0.88
2023-03-13T16:12:52.349Z,1.20
2023-03-13T16:15:19.278Z,0.80
2023-03-13T16:17:46.051Z,0.98
2023-03-13T16:20:16.418Z,0.98
2023-03-13T16:22:43.657Z,0.80
2023-03-13T16:25:13.603Z,0.70
2023-03-13T16:27:41.963Z,0.57
2023-03-13T16:30:27.902Z,0.90
2023-03-13T16:32:55.190Z,0.90
2023-03-13T16:35:23.187Z,0.90
2023-03-13T16:37:50.954Z,0.60
2023-03-13T16:40:23.869Z,0.90
2023-03-13T16:42:50.802Z,0.93
2023-03-13T16:45:18.206Z,1.10
2023-03-13T16:47:45.896Z,0.80
2023-03-13T16:50:24.938Z,1.42
2023-03-13T16:52:52.337Z,0.95
2023-03-13T16:55:20.163Z,0.80
2023-03-13T16:57:46.969Z,1.10
2023-03-13T17:00:20.230Z,0.90
2023-03-13T17:02:47.327Z,1.10
2023-03-13T17:05:16.142Z,0.95
2023-03-13T17:07:48.840Z,0.80
2023-03-13T17:10:27.726Z,1.10
2023-03-13T17:12:54.657Z,1.00
2023-03-13T17:15:23.022Z,0.95
2023-03-13T17:17:51.889Z,1.08
2023-03-13T17:20:22.458Z,0.98
2023-03-13T17:22:49.762Z,1.38
2023-03-13T17:25:16.839Z,3.15
2023-03-13T17:27:44.039Z,0.90
2023-03-13T17:30:22.946Z,1.10
2023-03-13T17:32:50.998Z,1.27
2023-03-13T17:35:20.560Z,1.33
2023-03-13T17:37:48.612Z,0.95
2023-03-13T17:40:22.708Z,1.52
2023-03-13T17:42:50.133Z,1.10
2023-03-13T17:45:17.779Z,1.23
2023-03-13T17:47:45.161Z,1.25
2023-03-13T17:50:26.930Z,1.27
2023-03-13T17:52:54.019Z,1.00
2023-03-13T17:55:21.318Z,1.00
2023-03-13T17:57:48.907Z,1.17
2023-03-13T18:00:34.975Z,0.90
2023-03-13T18:03:01.867Z,1.23
2023-03-13T18:05:29.106Z,1.30
2023-03-13T18:07:56.539Z,0.95
2023-03-13T18:10:26.637Z,1.00
2023-03-13T18:12:53.690Z,1.00
2023-03-13T18:15:26.145Z,2.67
2023-03-13T18:17:53.874Z,1.52
2023-03-13T18:20:23.898Z,1.00
2023-03-13T18:22:50.822Z,0.90
2023-03-13T18:25:17.870Z,1.20
2023-03-13T18:27:44.818Z,0.88
2023-03-13T18:30:16.085Z,1.10
2023-03-13T18:32:42.935Z,0.90
2023-03-13T18:35:10.200Z,1.00
2023-03-13T18:37:37.072Z,1.05
2023-03-13T18:40:10.746Z,0.90
2023-03-13T18:42:37.536Z,0.63
2023-03-13T18:45:05.053Z,0.90
2023-03-13T18:47:31.800Z,0.65
2023-03-13T18:49:58.545Z,0.95
2023-03-13T18:52:25.617Z,0.90
2023-03-13T18:54:52.330Z,0.80
2023-03-13T18:57:20.193Z,0.90
2023-03-13T18:59:47.067Z,0.80
2023-03-13T19:02:18.482Z,0.60
2023-03-13T19:04:47.056Z,0.80
2023-03-13T19:07:26.042Z,0.90
2023-03-13T19:09:54.545Z,1.10
2023-03-13T19:12:21.416Z,0.70
2023-03-13T19:14:48.178Z,0.70
2023-03-13T19:17:24.553Z,0.52
2023-03-13T19:19:51.491Z,0.60
2023-03-13T19:22:18.303Z,0.65
2023-03-13T19:24:45.101Z,0.60
2023-03-13T19:27:14.544Z,0.80
2023-03-13T19:29:41.269Z,0.88
2023-03-13T19:32:13.921Z,0.80
2023-03-13T19:34:40.742Z,0.70
2023-03-13T19:37:11.101Z,0.80
2023-03-13T19:39:37.957Z,0.98
2023-03-13T19:42:06.487Z,0.70
2023-03-13T19:44:33.307Z,0.95
2023-03-13T19:47:00.534Z,0.65
2023-03-13T19:49:28.186Z,0.95
2023-03-13T19:51:55.043Z,0.70
2023-03-13T19:54:24.291Z,0.63
2023-03-13T19:56:51.164Z,0.65
2023-03-13T19:59:20.643Z,0.70
2023-03-13T20:01:48.016Z,0.50
2023-03-13T20:04:16.529Z,0.70
2023-03-13T20:06:44.304Z,0.50
2023-03-13T20:09:16.907Z,0.63
2023-03-13T20:11:44.833Z,0.80
2023-03-13T20:14:12.445Z,1.00
2023-03-13T20:16:39.733Z,0.82
2023-03-13T20:19:07.000Z,0.90
2023-03-13T20:21:37.001Z,0.90
2023-03-13T20:24:04.224Z,0.80
2023-03-13T20:26:31.299Z,0.77
2023-03-13T20:28:58.720Z,0.90
2023-03-13T20:31:29.039Z,0.60
2023-03-13T20:33:57.009Z,0.60
2023-03-13T20:36:24.701Z,0.73
2023-03-13T20:38:52.117Z,0.90
2023-03-13T20:41:24.567Z,0.75
2023-03-13T20:43:52.276Z,0.90
2023-03-13T20:46:19.767Z,0.80
2023-03-13T20:48:46.743Z,0.80
2023-03-13T20:51:14.203Z,0.70
2023-03-13T20:53:41.994Z,0.90
2023-03-13T20:56:10.706Z,0.70
2023-03-13T20:58:38.219Z,0.75
2023-03-13T21:01:06.806Z,0.82
2023-03-13T21:03:35.606Z,1.00
2023-03-13T21:06:17.716Z,1.35
2023-03-13T21:08:45.770Z,0.90
2023-03-13T21:11:23.339Z,0.90
2023-03-13T21:13:50.668Z,1.40
2023-03-13T21:16:19.113Z,1.02
2023-03-13T21:18:47.583Z,0.95
2023-03-13T21:21:18.660Z,1.35
2023-03-13T21:23:46.690Z,1.40
2023-03-13T21:26:14.284Z,0.98
2023-03-13T21:28:41.332Z,0.90
2023-03-13T21:31:13.491Z,1.00
2023-03-13T21:33:41.452Z,1.40
2023-03-13T21:36:09.901Z,1.35
2023-03-13T21:38:37.605Z,1.63
2023-03-13T21:41:12.573Z,1.45
2023-03-13T21:43:43.822Z,1.70
2023-03-13T21:46:12.378Z,1.00
2023-03-13T21:48:40.496Z,1.27
2023-03-13T21:51:07.985Z,1.10
2023-03-13T21:53:35.541Z,1.20
2023-03-13T21:56:02.670Z,1.20
2023-03-13T21:58:29.662Z,1.10
2023-03-13T22:00:57.423Z,1.13
2023-03-13T22:03:26.800Z,1.13
2023-03-13T22:05:53.910Z,0.85
2023-03-13T22:08:20.806Z,0.85
2023-03-13T22:10:49.693Z,1.10
2023-03-13T22:13:17.050Z,1.10
2023-03-13T22:15:46.659Z,1.05
2023-03-13T22:18:17.415Z,0.60
2023-03-13T22:20:44.318Z,0.90
2023-03-13T22:23:12.255Z,0.90
2023-03-13T22:25:40.940Z,0.70
2023-03-13T22:28:08.680Z,0.50
2023-03-13T22:30:37.127Z,0.80
2023-03-13T22:33:06.817Z,0.70
2023-03-13T22:35:35.207Z,1.00
2023-03-13T22:38:02.655Z,0.90
2023-03-13T22:40:29.529Z,0.85
2023-03-13T22:42:56.346Z,0.73
2023-03-13T22:45:23.150Z,1.05
2023-03-13T22:47:50.276Z,0.70
2023-03-13T22:50:18.848Z,1.15
2023-03-13T22:52:45.569Z,1.00
2023-03-13T22:55:12.749Z,1.00
2023-03-13T22:57:39.765Z,0.80
2023-03-13T23:00:08.921Z,1.63
2023-03-13T23:02:35.658Z,0.80
2023-03-13T23:05:02.478Z,1.00
2023-03-13T23:07:30.137Z,0.80
2023-03-13T23:09:58.451Z,0.77
2023-03-13T23:12:25.989Z,0.95
2023-03-13T23:14:54.492Z,0.82
2023-03-13T23:17:21.274Z,1.02
2023-03-13T23:19:48.202Z,0.90
2023-03-13T23:22:18.093Z,1.95
2023-03-13T23:24:45.390Z,1.00
2023-03-13T23:27:12.357Z,1.20
2023-03-13T23:29:39.959Z,1.30
2023-03-13T23:32:07.169Z,1.42
2023-03-13T23:34:35.810Z,1.33
2023-03-13T23:37:02.676Z,0.98
2023-03-13T23:39:29.679Z,1.30
2023-03-13T23:41:56.548Z,1.15
2023-03-13T23:44:23.482Z,1.38
2023-03-13T23:46:50.323Z,1.10
2023-03-13T23:49:17.175Z,1.15
2023-03-13T23:51:43.978Z,1.13
2023-03-13T23:54:10.732Z,1.13
2023-03-13T23:56:37.594Z,1.20
2023-03-13T23:59:04.601Z,1.30
